sensor_id;sensor_type;location;lat;lon;timestamp;temperature;humidity
2999;DHT22;1509;51.964;7.628;2023-10-19T00:01:58;9.70;99.90
2999;DHT22;1509;51.964;7.628;2023-10-19T00:04:25;9.50;99.90
2999;DHT22;1509;51.964;7.628;2023-10-19T00:06:52;9.60;99.90
2999;DHT22;1509;51.964;7.628;2023-10-19T00:09:20;9.60;99.90
2999;DHT22;1509;51.964;7.628;2023-10-19T00:11:46;9.70;99.90
2999;DHT22;1509;51.964;7.628;2023-10-19T00:14:13;9.70;99.90
2999;DHT22;1509;51.964;7.628;2023-10-19T00:16:43;9.60;99.90
2999;DHT22;1509;51.964;7.628;2023-10-19T00:19:15;9.50;99.90
2999;DHT22;1509;51.964;7.628;2023-10-19T00:21:45;9.50;99.90
2999;DHT22;1509;51.964;7.628;2023-10-19T00:24:18;9.50;99.90
2999;DHT22;1509;51.964;7.628;2023-10-19T00:26:45;9.50;99.90
2999;DHT22;1509;51.964;7.628;2023-10-19T00:29:11;9.40;99.90
2999;DHT22;1509;51.964;7.628;2023-10-19T00:31:56;9.50;99.90
2999;DHT22;1509;51.964;7.628;2023-10-19T00:34:23;9.40;99.90
2999;DHT22;1509;51.964;7.628;2023-10-19T00:36:49;9.40;99.90
2999;DHT22;1509;51.964;7.628;2023-10-19T00:39:16;9.40;99.90
2999;DHT22;1509;51.964;7.628;2023-10-19T00:41:46;9.40;99.90
2999;DHT22;1509;51.964;7.628;2023-10-19T00:44:13;9.40;99.90
2999;DHT22;1509;51.964;7.628;2023-10-19T00:46:42;9.40;99.90
2999;DHT22;1509;51.964;7.628;2023-10-19T00:49:08;9.40;99.90
2999;DHT22;1509;51.964;7.628;2023-10-19T00:51:47;9.40;99.90
2999;DHT22;1509;51.964;7.628;2023-10-19T00:54:27;9.50;99.90
2999;DHT22;1509;51.964;7.628;2023-10-19T00:56:59;9.50;99.90
2999;DHT22;1509;51.964;7.628;2023-10-19T00:59:30;9.40;99.90
2999;DHT22;1509;51.964;7.628;2023-10-19T01:01:56;9.40;99.90
2999;DHT22;1509;51.964;7.628;2023-10-19T01:04:40;9.40;99.90
2999;DHT22;1509;51.964;7.628;2023-10-19T01:07:11;9.40;99.90
2999;DHT22;1509;51.964;7.628;2023-10-19T01:09:43;9.40;99.90
2999;DHT22;1509;51.964;7.628;2023-10-19T01:12:09;9.40;99.90
2999;DHT22;1509;51.964;7.628;2023-10-19T01:15:16;9.50;99.90
2999;DHT22;1509;51.964;7.628;2023-10-19T01:17:50;9.50;99.90
2999;DHT22;1509;51.964;7.628;2023-10-19T01:20:24;9.50;99.90
2999;DHT22;1509;51.964;7.628;2023-10-19T01:22:58;9.50;99.90
2999;DHT22;1509;51.964;7.628;2023-10-19T01:25:45;9.30;99.90
2999;DHT22;1509;51.964;7.628;2023-10-19T01:28:20;9.40;99.90
2999;DHT22;1509;51.964;7.628;2023-10-19T01:30:50;9.30;99.90
2999;DHT22;1509;51.964;7.628;2023-10-19T01:33:20;9.30;99.90
2999;DHT22;1509;51.964;7.628;2023-10-19T01:35:49;9.40;99.90
2999;DHT22;1509;51.964;7.628;2023-10-19T01:38:34;9.40;99.90
2999;DHT22;1509;51.964;7.628;2023-10-19T01:41:01;9.40;99.90
2999;DHT22;1509;51.964;7.628;2023-10-19T01:43:31;9.40;99.90
2999;DHT22;1509;51.964;7.628;2023-10-19T01:45:57;9.50;99.90
2999;DHT22;1509;51.964;7.628;2023-10-19T01:48:24;9.50;99.90
2999;DHT22;1509;51.964;7.628;2023-10-19T01:51:01;9.60;99.90
2999;DHT22;1509;51.964;7.628;2023-10-19T01:53:29;9.60;99.90
2999;DHT22;1509;51.964;7.628;2023-10-19T01:55:55;9.50;99.90
2999;DHT22;1509;51.964;7.628;2023-10-19T01:58:24;9.50;99.90
2999;DHT22;1509;51.964;7.628;2023-10-19T02:00:52;9.50;99.90
2999;DHT22;1509;51.964;7.628;2023-10-19T02:03:28;9.50;99.90
2999;DHT22;1509;51.964;7.628;2023-10-19T02:05:58;9.50;99.90
2999;DHT22;1509;51.964;7.628;2023-10-19T02:08:25;9.50;99.90
2999;DHT22;1509;51.964;7.628;2023-10-19T02:10:52;9.60;99.90
2999;DHT22;1509;51.964;7.628;2023-10-19T02:13:21;9.60;99.90
2999;DHT22;1509;51.964;7.628;2023-10-19T02:15:47;9.60;99.90
2999;DHT22;1509;51.964;7.628;2023-10-19T02:18:13;9.60;99.90
2999;DHT22;1509;51.964;7.628;2023-10-19T02:20:39;9.60;99.90
2999;DHT22;1509;51.964;7.628;2023-10-19T02:23:07;9.60;99.90
2999;DHT22;1509;51.964;7.628;2023-10-19T02:25:33;9.70;99.90
2999;DHT22;1509;51.964;7.628;2023-10-19T02:28:05;9.70;99.90
2999;DHT22;1509;51.964;7.628;2023-10-19T02:30:35;9.70;99.90
2999;DHT22;1509;51.964;7.628;2023-10-19T02:33:01;9.60;99.90
2999;DHT22;1509;51.964;7.628;2023-10-19T02:35:27;9.60;99.90
2999;DHT22;1509;51.964;7.628;2023-10-19T02:37:56;9.60;99.90
2999;DHT22;1509;51.964;7.628;2023-10-19T02:40:22;9.60;99.90
2999;DHT22;1509;51.964;7.628;2023-10-19T02:42:50;9.70;99.90
2999;DHT22;1509;51.964;7.628;2023-10-19T02:45:19;9.70;99.90
2999;DHT22;1509;51.964;7.628;2023-10-19T02:47:48;9.70;99.90
2999;DHT22;1509;51.964;7.628;2023-10-19T02:50:18;9.70;99.90
2999;DHT22;1509;51.964;7.628;2023-10-19T02:52:48;9.70;99.90
2999;DHT22;1509;51.964;7.628;2023-10-19T02:55:14;9.80;99.90
2999;DHT22;1509;51.964;7.628;2023-10-19T02:57:42;9.80;99.90
2999;DHT22;1509;51.964;7.628;2023-10-19T03:00:12;9.80;99.90
2999;DHT22;1509;51.964;7.628;2023-10-19T03:02:40;9.70;99.90
2999;DHT22;1509;51.964;7.628;2023-10-19T03:05:06;9.80;99.90
2999;DHT22;1509;51.964;7.628;2023-10-19T03:07:43;9.80;99.90
2999;DHT22;1509;51.964;7.628;2023-10-19T03:10:10;9.80;99.90
2999;DHT22;1509;51.964;7.628;2023-10-19T03:12:50;9.80;99.90
2999;DHT22;1509;51.964;7.628;2023-10-19T03:15:16;9.90;99.90
2999;DHT22;1509;51.964;7.628;2023-10-19T03:17:44;9.90;99.90
2999;DHT22;1509;51.964;7.628;2023-10-19T03:20:10;10.00;99.90
2999;DHT22;1509;51.964;7.628;2023-10-19T03:22:36;10.00;99.90
2999;DHT22;1509;51.964;7.628;2023-10-19T03:25:05;10.00;99.90
2999;DHT22;1509;51.964;7.628;2023-10-19T03:27:50;10.00;99.90
2999;DHT22;1509;51.964;7.628;2023-10-19T03:30:15;10.00;99.90
2999;DHT22;1509;51.964;7.628;2023-10-19T03:32:43;10.00;99.90
2999;DHT22;1509;51.964;7.628;2023-10-19T03:35:09;9.90;99.90
2999;DHT22;1509;51.964;7.628;2023-10-19T03:37:40;9.90;99.90
2999;DHT22;1509;51.964;7.628;2023-10-19T03:40:07;10.00;99.90
2999;DHT22;1509;51.964;7.628;2023-10-19T03:42:35;10.00;99.90
2999;DHT22;1509;51.964;7.628;2023-10-19T03:45:07;10.00;99.90
2999;DHT22;1509;51.964;7.628;2023-10-19T03:47:39;10.00;99.90
2999;DHT22;1509;51.964;7.628;2023-10-19T03:50:05;10.10;99.90
2999;DHT22;1509;51.964;7.628;2023-10-19T03:52:39;10.10;99.90
2999;DHT22;1509;51.964;7.628;2023-10-19T03:55:06;10.10;99.90
2999;DHT22;1509;51.964;7.628;2023-10-19T03:57:37;10.10;99.90
2999;DHT22;1509;51.964;7.628;2023-10-19T04:00:12;10.20;99.90
2999;DHT22;1509;51.964;7.628;2023-10-19T04:02:42;10.30;99.90
2999;DHT22;1509;51.964;7.628;2023-10-19T04:05:08;10.30;99.90
2999;DHT22;1509;51.964;7.628;2023-10-19T04:07:40;10.30;99.90
2999;DHT22;1509;51.964;7.628;2023-10-19T04:10:07;10.40;99.90
2999;DHT22;1509;51.964;7.628;2023-10-19T04:12:34;10.40;99.90
2999;DHT22;1509;51.964;7.628;2023-10-19T04:15:05;10.40;99.90
2999;DHT22;1509;51.964;7.628;2023-10-19T04:17:37;10.50;99.90
2999;DHT22;1509;51.964;7.628;2023-10-19T04:20:04;10.40;99.90
2999;DHT22;1509;51.964;7.628;2023-10-19T04:22:50;10.50;99.90
2999;DHT22;1509;51.964;7.628;2023-10-19T04:25:17;10.50;99.90
2999;DHT22;1509;51.964;7.628;2023-10-19T04:27:47;10.50;99.90
2999;DHT22;1509;51.964;7.628;2023-10-19T04:30:15;10.40;99.90
2999;DHT22;1509;51.964;7.628;2023-10-19T04:32:45;10.50;99.90
2999;DHT22;1509;51.964;7.628;2023-10-19T04:35:14;10.50;99.90
2999;DHT22;1509;51.964;7.628;2023-10-19T04:37:49;10.50;99.90
2999;DHT22;1509;51.964;7.628;2023-10-19T04:40:16;10.50;99.90
2999;DHT22;1509;51.964;7.628;2023-10-19T04:42:41;10.60;99.90
2999;DHT22;1509;51.964;7.628;2023-10-19T04:45:13;10.60;99.90
2999;DHT22;1509;51.964;7.628;2023-10-19T04:47:39;10.60;99.90
2999;DHT22;1509;51.964;7.628;2023-10-19T04:50:05;10.60;99.90
2999;DHT22;1509;51.964;7.628;2023-10-19T04:52:32;10.70;99.90
2999;DHT22;1509;51.964;7.628;2023-10-19T04:54:58;10.70;99.90
2999;DHT22;1509;51.964;7.628;2023-10-19T04:57:25;10.70;99.90
2999;DHT22;1509;51.964;7.628;2023-10-19T04:59:51;10.70;99.90
2999;DHT22;1509;51.964;7.628;2023-10-19T05:02:17;10.70;99.90
2999;DHT22;1509;51.964;7.628;2023-10-19T05:04:44;10.70;99.90
2999;DHT22;1509;51.964;7.628;2023-10-19T05:07:11;10.70;99.90
2999;DHT22;1509;51.964;7.628;2023-10-19T05:09:43;10.80;99.90
2999;DHT22;1509;51.964;7.628;2023-10-19T05:12:09;10.80;99.90
2999;DHT22;1509;51.964;7.628;2023-10-19T05:14:37;10.80;99.90
2999;DHT22;1509;51.964;7.628;2023-10-19T05:17:03;10.80;99.90
2999;DHT22;1509;51.964;7.628;2023-10-19T05:19:33;10.80;99.90
2999;DHT22;1509;51.964;7.628;2023-10-19T05:22:04;10.90;99.90
2999;DHT22;1509;51.964;7.628;2023-10-19T05:24:31;10.90;99.90
2999;DHT22;1509;51.964;7.628;2023-10-19T05:26:58;10.90;99.90
2999;DHT22;1509;51.964;7.628;2023-10-19T05:29:24;10.90;99.90
2999;DHT22;1509;51.964;7.628;2023-10-19T05:31:51;10.90;99.90
2999;DHT22;1509;51.964;7.628;2023-10-19T05:34:21;10.90;99.90
2999;DHT22;1509;51.964;7.628;2023-10-19T05:36:47;10.90;99.90
2999;DHT22;1509;51.964;7.628;2023-10-19T05:39:15;10.90;99.90
2999;DHT22;1509;51.964;7.628;2023-10-19T05:41:41;10.90;99.90
2999;DHT22;1509;51.964;7.628;2023-10-19T05:44:07;10.90;99.90
2999;DHT22;1509;51.964;7.628;2023-10-19T05:46:32;10.90;99.90
2999;DHT22;1509;51.964;7.628;2023-10-19T05:48:58;10.90;99.90
2999;DHT22;1509;51.964;7.628;2023-10-19T05:51:25;10.90;99.90
2999;DHT22;1509;51.964;7.628;2023-10-19T05:53:50;11.00;99.90
2999;DHT22;1509;51.964;7.628;2023-10-19T05:56:29;11.00;99.90
2999;DHT22;1509;51.964;7.628;2023-10-19T05:59:00;11.00;99.90
2999;DHT22;1509;51.964;7.628;2023-10-19T06:01:26;11.00;99.90
2999;DHT22;1509;51.964;7.628;2023-10-19T06:03:52;11.10;99.90
2999;DHT22;1509;51.964;7.628;2023-10-19T06:06:23;11.10;99.90
2999;DHT22;1509;51.964;7.628;2023-10-19T06:08:48;11.10;99.90
2999;DHT22;1509;51.964;7.628;2023-10-19T06:11:22;11.10;99.90
2999;DHT22;1509;51.964;7.628;2023-10-19T06:13:48;11.10;99.90
2999;DHT22;1509;51.964;7.628;2023-10-19T06:16:14;11.20;99.90
2999;DHT22;1509;51.964;7.628;2023-10-19T06:18:40;11.10;99.90
2999;DHT22;1509;51.964;7.628;2023-10-19T06:21:05;11.20;99.90
2999;DHT22;1509;51.964;7.628;2023-10-19T06:23:31;11.20;99.90
2999;DHT22;1509;51.964;7.628;2023-10-19T06:25:57;11.20;99.90
2999;DHT22;1509;51.964;7.628;2023-10-19T06:28:25;11.30;99.90
2999;DHT22;1509;51.964;7.628;2023-10-19T06:30:51;11.20;99.90
2999;DHT22;1509;51.964;7.628;2023-10-19T06:33:17;11.30;99.90
2999;DHT22;1509;51.964;7.628;2023-10-19T06:35:42;11.30;99.90
2999;DHT22;1509;51.964;7.628;2023-10-19T06:38:08;11.40;99.90
2999;DHT22;1509;51.964;7.628;2023-10-19T06:40:35;11.40;99.90
2999;DHT22;1509;51.964;7.628;2023-10-19T06:43:04;11.40;99.90
2999;DHT22;1509;51.964;7.628;2023-10-19T06:45:31;11.40;99.90
2999;DHT22;1509;51.964;7.628;2023-10-19T06:47:57;11.50;99.90
2999;DHT22;1509;51.964;7.628;2023-10-19T06:50:25;11.60;99.90
2999;DHT22;1509;51.964;7.628;2023-10-19T06:52:52;11.60;99.90
2999;DHT22;1509;51.964;7.628;2023-10-19T06:55:19;11.60;99.90
2999;DHT22;1509;51.964;7.628;2023-10-19T06:57:47;11.60;99.90
2999;DHT22;1509;51.964;7.628;2023-10-19T07:00:17;11.60;99.90
2999;DHT22;1509;51.964;7.628;2023-10-19T07:02:56;11.70;99.90
2999;DHT22;1509;51.964;7.628;2023-10-19T07:05:22;11.80;99.90
2999;DHT22;1509;51.964;7.628;2023-10-19T07:07:52;11.80;99.90
2999;DHT22;1509;51.964;7.628;2023-10-19T07:10:20;11.90;99.90
2999;DHT22;1509;51.964;7.628;2023-10-19T07:12:48;11.90;99.90
2999;DHT22;1509;51.964;7.628;2023-10-19T07:15:15;11.80;99.90
2999;DHT22;1509;51.964;7.628;2023-10-19T07:17:44;11.80;99.90
2999;DHT22;1509;51.964;7.628;2023-10-19T07:20:12;11.90;99.90
2999;DHT22;1509;51.964;7.628;2023-10-19T07:22:58;11.90;99.90
2999;DHT22;1509;51.964;7.628;2023-10-19T07:25:48;12.00;99.90
2999;DHT22;1509;51.964;7.628;2023-10-19T07:28:18;12.00;99.90
2999;DHT22;1509;51.964;7.628;2023-10-19T07:30:45;12.10;99.90
2999;DHT22;1509;51.964;7.628;2023-10-19T07:33:12;12.20;99.90
2999;DHT22;1509;51.964;7.628;2023-10-19T07:35:46;12.30;99.90
2999;DHT22;1509;51.964;7.628;2023-10-19T07:38:16;12.30;99.90
2999;DHT22;1509;51.964;7.628;2023-10-19T07:40:43;12.30;99.90
2999;DHT22;1509;51.964;7.628;2023-10-19T07:43:09;12.40;99.90
2999;DHT22;1509;51.964;7.628;2023-10-19T07:45:35;12.40;99.90
2999;DHT22;1509;51.964;7.628;2023-10-19T07:48:02;12.40;99.90
2999;DHT22;1509;51.964;7.628;2023-10-19T07:50:33;12.50;99.90
2999;DHT22;1509;51.964;7.628;2023-10-19T07:52:59;12.50;99.90
2999;DHT22;1509;51.964;7.628;2023-10-19T07:55:25;12.60;99.90
2999;DHT22;1509;51.964;7.628;2023-10-19T07:57:51;12.60;99.90
2999;DHT22;1509;51.964;7.628;2023-10-19T08:00:19;12.60;99.90
2999;DHT22;1509;51.964;7.628;2023-10-19T08:02:45;12.70;99.90
2999;DHT22;1509;51.964;7.628;2023-10-19T08:05:22;12.80;99.90
2999;DHT22;1509;51.964;7.628;2023-10-19T08:07:48;12.80;99.90
2999;DHT22;1509;51.964;7.628;2023-10-19T08:10:16;12.80;99.90
2999;DHT22;1509;51.964;7.628;2023-10-19T08:12:43;13.00;99.90
2999;DHT22;1509;51.964;7.628;2023-10-19T08:15:10;13.10;99.90
2999;DHT22;1509;51.964;7.628;2023-10-19T08:17:40;13.10;99.90
2999;DHT22;1509;51.964;7.628;2023-10-19T08:20:07;13.20;99.90
2999;DHT22;1509;51.964;7.628;2023-10-19T08:22:44;13.20;99.90
2999;DHT22;1509;51.964;7.628;2023-10-19T08:25:12;13.30;99.90
2999;DHT22;1509;51.964;7.628;2023-10-19T08:27:41;13.30;99.90
2999;DHT22;1509;51.964;7.628;2023-10-19T08:30:12;13.40;99.90
2999;DHT22;1509;51.964;7.628;2023-10-19T08:32:41;13.50;99.90
2999;DHT22;1509;51.964;7.628;2023-10-19T08:35:08;13.60;99.90
2999;DHT22;1509;51.964;7.628;2023-10-19T08:37:37;13.70;99.90
2999;DHT22;1509;51.964;7.628;2023-10-19T08:40:10;13.70;99.90
2999;DHT22;1509;51.964;7.628;2023-10-19T08:42:40;13.80;99.90
2999;DHT22;1509;51.964;7.628;2023-10-19T08:45:07;13.80;99.90
2999;DHT22;1509;51.964;7.628;2023-10-19T08:47:37;13.80;99.90
2999;DHT22;1509;51.964;7.628;2023-10-19T08:50:07;13.90;99.90
2999;DHT22;1509;51.964;7.628;2023-10-19T08:52:34;14.00;99.90
2999;DHT22;1509;51.964;7.628;2023-10-19T08:55:01;14.00;99.90
2999;DHT22;1509;51.964;7.628;2023-10-19T08:57:27;14.10;99.90
2999;DHT22;1509;51.964;7.628;2023-10-19T08:59:54;14.10;99.90
2999;DHT22;1509;51.964;7.628;2023-10-19T09:02:24;14.10;99.90
2999;DHT22;1509;51.964;7.628;2023-10-19T09:04:49;14.20;99.90
2999;DHT22;1509;51.964;7.628;2023-10-19T09:07:18;14.20;99.90
2999;DHT22;1509;51.964;7.628;2023-10-19T09:09:44;14.30;99.90
2999;DHT22;1509;51.964;7.628;2023-10-19T09:12:12;14.40;99.90
2999;DHT22;1509;51.964;7.628;2023-10-19T09:14:39;14.40;99.90
2999;DHT22;1509;51.964;7.628;2023-10-19T09:17:09;14.50;99.90
2999;DHT22;1509;51.964;7.628;2023-10-19T09:19:39;14.60;99.90
2999;DHT22;1509;51.964;7.628;2023-10-19T09:22:06;14.70;99.90
2999;DHT22;1509;51.964;7.628;2023-10-19T09:24:50;14.70;99.90
2999;DHT22;1509;51.964;7.628;2023-10-19T09:27:19;14.80;99.90
2999;DHT22;1509;51.964;7.628;2023-10-19T09:29:46;14.80;99.90
2999;DHT22;1509;51.964;7.628;2023-10-19T09:32:12;14.90;99.90
2999;DHT22;1509;51.964;7.628;2023-10-19T09:34:41;15.00;99.90
2999;DHT22;1509;51.964;7.628;2023-10-19T09:37:09;15.00;99.90
2999;DHT22;1509;51.964;7.628;2023-10-19T09:39:35;15.10;99.90
2999;DHT22;1509;51.964;7.628;2023-10-19T09:44:34;15.20;99.90
2999;DHT22;1509;51.964;7.628;2023-10-19T09:47:50;15.40;99.90
2999;DHT22;1509;51.964;7.628;2023-10-19T09:49:57;15.40;99.90
2999;DHT22;1509;51.964;7.628;2023-10-19T09:52:23;16.60;99.90
2999;DHT22;1509;51.964;7.628;2023-10-19T09:54:59;17.70;99.90
2999;DHT22;1509;51.964;7.628;2023-10-19T09:57:35;18.20;99.90
2999;DHT22;1509;51.964;7.628;2023-10-19T10:00:05;18.40;99.90
2999;DHT22;1509;51.964;7.628;2023-10-19T10:02:39;18.40;99.90
2999;DHT22;1509;51.964;7.628;2023-10-19T10:10:49;19.20;99.90
2999;DHT22;1509;51.964;7.628;2023-10-19T10:15:56;19.10;99.90
2999;DHT22;1509;51.964;7.628;2023-10-19T10:18:26;18.80;99.90
2999;DHT22;1509;51.964;7.628;2023-10-19T10:21:11;18.60;99.90
2999;DHT22;1509;51.964;7.628;2023-10-19T10:23:44;18.40;99.90
2999;DHT22;1509;51.964;7.628;2023-10-19T10:26:11;18.40;99.90
2999;DHT22;1509;51.964;7.628;2023-10-19T10:28:36;18.20;99.90
2999;DHT22;1509;51.964;7.628;2023-10-19T10:31:13;18.20;99.90
2999;DHT22;1509;51.964;7.628;2023-10-19T10:36:08;18.10;99.90
2999;DHT22;1509;51.964;7.628;2023-10-19T10:38:34;18.10;99.90
2999;DHT22;1509;51.964;7.628;2023-10-19T10:41:03;18.10;99.90
2999;DHT22;1509;51.964;7.628;2023-10-19T10:43:29;18.70;99.90
2999;DHT22;1509;51.964;7.628;2023-10-19T10:46:05;19.50;99.90
2999;DHT22;1509;51.964;7.628;2023-10-19T10:48:32;19.70;99.90
2999;DHT22;1509;51.964;7.628;2023-10-19T10:50:58;19.10;99.90
2999;DHT22;1509;51.964;7.628;2023-10-19T10:53:24;18.90;99.90
2999;DHT22;1509;51.964;7.628;2023-10-19T10:55:53;18.60;99.90
2999;DHT22;1509;51.964;7.628;2023-10-19T10:58:19;18.50;99.90
2999;DHT22;1509;51.964;7.628;2023-10-19T11:00:46;18.30;99.90
2999;DHT22;1509;51.964;7.628;2023-10-19T11:03:20;18.20;99.90
2999;DHT22;1509;51.964;7.628;2023-10-19T11:05:47;18.20;99.90
2999;DHT22;1509;51.964;7.628;2023-10-19T11:08:16;18.10;99.90
2999;DHT22;1509;51.964;7.628;2023-10-19T11:10:44;17.90;99.90
2999;DHT22;1509;51.964;7.628;2023-10-19T11:13:31;17.90;99.90
2999;DHT22;1509;51.964;7.628;2023-10-19T11:16:03;17.70;99.90
2999;DHT22;1509;51.964;7.628;2023-10-19T11:18:34;17.70;99.90
2999;DHT22;1509;51.964;7.628;2023-10-19T11:21:09;17.70;99.90
2999;DHT22;1509;51.964;7.628;2023-10-19T11:23:43;17.80;99.90
2999;DHT22;1509;51.964;7.628;2023-10-19T11:26:10;18.50;99.90
2999;DHT22;1509;51.964;7.628;2023-10-19T11:28:37;20.00;99.90
2999;DHT22;1509;51.964;7.628;2023-10-19T11:31:19;21.30;99.90
2999;DHT22;1509;51.964;7.628;2023-10-19T11:33:47;21.80;99.90
2999;DHT22;1509;51.964;7.628;2023-10-19T11:36:17;21.90;99.90
2999;DHT22;1509;51.964;7.628;2023-10-19T11:38:44;22.90;99.90
2999;DHT22;1509;51.964;7.628;2023-10-19T11:41:11;23.50;99.90
2999;DHT22;1509;51.964;7.628;2023-10-19T11:43:38;24.40;99.90
2999;DHT22;1509;51.964;7.628;2023-10-19T11:46:04;25.20;99.90
2999;DHT22;1509;51.964;7.628;2023-10-19T11:48:41;25.30;99.90
2999;DHT22;1509;51.964;7.628;2023-10-19T11:51:09;24.60;99.90
2999;DHT22;1509;51.964;7.628;2023-10-19T11:53:38;24.40;99.90
2999;DHT22;1509;51.964;7.628;2023-10-19T11:56:05;24.90;99.90
2999;DHT22;1509;51.964;7.628;2023-10-19T11:58:32;26.30;99.90
2999;DHT22;1509;51.964;7.628;2023-10-19T12:00:59;26.50;99.90
2999;DHT22;1509;51.964;7.628;2023-10-19T12:03:25;24.70;99.90
2999;DHT22;1509;51.964;7.628;2023-10-19T12:05:51;23.90;99.90
2999;DHT22;1509;51.964;7.628;2023-10-19T12:08:20;24.00;99.90
2999;DHT22;1509;51.964;7.628;2023-10-19T12:10:46;24.40;99.90
2999;DHT22;1509;51.964;7.628;2023-10-19T12:13:12;24.90;99.90
2999;DHT22;1509;51.964;7.628;2023-10-19T12:15:37;25.10;99.90
2999;DHT22;1509;51.964;7.628;2023-10-19T12:18:03;24.70;99.90
2999;DHT22;1509;51.964;7.628;2023-10-19T12:20:29;24.30;99.90
2999;DHT22;1509;51.964;7.628;2023-10-19T12:22:58;23.60;99.90
2999;DHT22;1509;51.964;7.628;2023-10-19T12:25:24;22.30;99.90
2999;DHT22;1509;51.964;7.628;2023-10-19T12:27:58;21.60;99.90
2999;DHT22;1509;51.964;7.628;2023-10-19T12:30:24;21.10;99.90
2999;DHT22;1509;51.964;7.628;2023-10-19T12:32:52;21.10;99.90
2999;DHT22;1509;51.964;7.628;2023-10-19T12:35:18;21.30;99.90
2999;DHT22;1509;51.964;7.628;2023-10-19T12:37:55;21.60;99.90
2999;DHT22;1509;51.964;7.628;2023-10-19T12:40:21;22.70;99.90
2999;DHT22;1509;51.964;7.628;2023-10-19T12:42:54;23.90;99.90
2999;DHT22;1509;51.964;7.628;2023-10-19T12:45:24;24.50;99.90
2999;DHT22;1509;51.964;7.628;2023-10-19T12:47:50;24.80;99.90
2999;DHT22;1509;51.964;7.628;2023-10-19T12:50:18;24.90;99.90
2999;DHT22;1509;51.964;7.628;2023-10-19T12:52:44;24.50;99.90
2999;DHT22;1509;51.964;7.628;2023-10-19T12:55:11;23.60;99.90
2999;DHT22;1509;51.964;7.628;2023-10-19T12:57:36;23.00;99.90
2999;DHT22;1509;51.964;7.628;2023-10-19T13:00:02;22.40;99.90
2999;DHT22;1509;51.964;7.628;2023-10-19T13:02:48;22.30;99.90
2999;DHT22;1509;51.964;7.628;2023-10-19T13:05:14;22.20;99.90
2999;DHT22;1509;51.964;7.628;2023-10-19T13:07:46;21.70;99.90
2999;DHT22;1509;51.964;7.628;2023-10-19T13:10:12;21.60;99.90
2999;DHT22;1509;51.964;7.628;2023-10-19T13:12:40;21.80;99.90
2999;DHT22;1509;51.964;7.628;2023-10-19T13:15:07;22.20;99.90
2999;DHT22;1509;51.964;7.628;2023-10-19T13:17:39;22.10;99.90
2999;DHT22;1509;51.964;7.628;2023-10-19T13:20:06;21.70;99.90
2999;DHT22;1509;51.964;7.628;2023-10-19T13:22:42;21.60;99.90
2999;DHT22;1509;51.964;7.628;2023-10-19T13:25:08;21.50;99.90
2999;DHT22;1509;51.964;7.628;2023-10-19T13:27:46;21.50;99.90
2999;DHT22;1509;51.964;7.628;2023-10-19T13:30:12;21.30;99.90
2999;DHT22;1509;51.964;7.628;2023-10-19T13:32:38;20.70;99.90
2999;DHT22;1509;51.964;7.628;2023-10-19T13:35:06;20.50;99.90
2999;DHT22;1509;51.964;7.628;2023-10-19T13:37:32;20.30;99.90
2999;DHT22;1509;51.964;7.628;2023-10-19T13:39:58;20.20;99.90
2999;DHT22;1509;51.964;7.628;2023-10-19T13:42:24;20.00;99.90
2999;DHT22;1509;51.964;7.628;2023-10-19T13:44:50;19.80;99.90
2999;DHT22;1509;51.964;7.628;2023-10-19T13:47:16;19.60;99.90
2999;DHT22;1509;51.964;7.628;2023-10-19T13:49:41;19.60;99.90
2999;DHT22;1509;51.964;7.628;2023-10-19T13:52:07;19.50;99.90
2999;DHT22;1509;51.964;7.628;2023-10-19T13:54:36;19.30;99.90
2999;DHT22;1509;51.964;7.628;2023-10-19T13:57:03;19.20;99.90
2999;DHT22;1509;51.964;7.628;2023-10-19T13:59:29;19.10;99.90
2999;DHT22;1509;51.964;7.628;2023-10-19T14:01:55;18.90;99.90
2999;DHT22;1509;51.964;7.628;2023-10-19T14:04:20;18.90;99.90
2999;DHT22;1509;51.964;7.628;2023-10-19T14:06:46;18.80;99.90
2999;DHT22;1509;51.964;7.628;2023-10-19T14:09:14;18.70;99.90
2999;DHT22;1509;51.964;7.628;2023-10-19T14:11:40;18.70;99.90
2999;DHT22;1509;51.964;7.628;2023-10-19T14:14:07;18.70;99.90
2999;DHT22;1509;51.964;7.628;2023-10-19T14:16:32;18.80;99.90
2999;DHT22;1509;51.964;7.628;2023-10-19T14:18:58;18.80;99.90
2999;DHT22;1509;51.964;7.628;2023-10-19T14:21:23;18.70;99.90
2999;DHT22;1509;51.964;7.628;2023-10-19T14:23:52;18.70;99.90
2999;DHT22;1509;51.964;7.628;2023-10-19T14:26:19;18.70;99.90
2999;DHT22;1509;51.964;7.628;2023-10-19T14:28:45;18.60;99.90
2999;DHT22;1509;51.964;7.628;2023-10-19T14:31:11;18.60;99.90
2999;DHT22;1509;51.964;7.628;2023-10-19T14:33:37;18.60;99.90
2999;DHT22;1509;51.964;7.628;2023-10-19T14:36:06;18.60;99.90
2999;DHT22;1509;51.964;7.628;2023-10-19T14:38:33;18.50;99.90
2999;DHT22;1509;51.964;7.628;2023-10-19T14:40:59;18.50;99.90
2999;DHT22;1509;51.964;7.628;2023-10-19T14:43:25;18.50;99.90
2999;DHT22;1509;51.964;7.628;2023-10-19T14:45:55;18.40;99.90
2999;DHT22;1509;51.964;7.628;2023-10-19T14:48:23;18.40;99.90
2999;DHT22;1509;51.964;7.628;2023-10-19T14:50:49;18.40;99.90
2999;DHT22;1509;51.964;7.628;2023-10-19T14:53:16;18.30;99.90
2999;DHT22;1509;51.964;7.628;2023-10-19T14:55:44;18.30;99.90
2999;DHT22;1509;51.964;7.628;2023-10-19T14:58:11;18.20;99.90
2999;DHT22;1509;51.964;7.628;2023-10-19T15:00:37;18.30;99.90
2999;DHT22;1509;51.964;7.628;2023-10-19T15:03:07;18.20;99.90
2999;DHT22;1509;51.964;7.628;2023-10-19T15:05:34;18.20;99.90
2999;DHT22;1509;51.964;7.628;2023-10-19T15:08:06;18.10;99.90
2999;DHT22;1509;51.964;7.628;2023-10-19T15:10:33;18.10;99.90
2999;DHT22;1509;51.964;7.628;2023-10-19T15:12:59;18.10;99.90
2999;DHT22;1509;51.964;7.628;2023-10-19T15:15:26;18.00;99.90
2999;DHT22;1509;51.964;7.628;2023-10-19T15:17:52;18.00;99.90
2999;DHT22;1509;51.964;7.628;2023-10-19T15:20:20;17.90;99.90
2999;DHT22;1509;51.964;7.628;2023-10-19T15:22:46;17.80;99.90
2999;DHT22;1509;51.964;7.628;2023-10-19T15:25:13;17.80;99.90
2999;DHT22;1509;51.964;7.628;2023-10-19T15:27:41;17.80;99.90
2999;DHT22;1509;51.964;7.628;2023-10-19T15:30:08;17.80;99.90
2999;DHT22;1509;51.964;7.628;2023-10-19T15:32:35;17.80;99.90
2999;DHT22;1509;51.964;7.628;2023-10-19T15:35:01;17.70;99.90
2999;DHT22;1509;51.964;7.628;2023-10-19T15:37:27;17.60;99.90
2999;DHT22;1509;51.964;7.628;2023-10-19T15:39:53;17.60;99.90
2999;DHT22;1509;51.964;7.628;2023-10-19T15:42:19;17.50;99.90
2999;DHT22;1509;51.964;7.628;2023-10-19T15:44:50;17.40;99.90
2999;DHT22;1509;51.964;7.628;2023-10-19T15:47:16;17.30;99.90
2999;DHT22;1509;51.964;7.628;2023-10-19T15:49:52;17.30;99.90
2999;DHT22;1509;51.964;7.628;2023-10-19T15:52:25;17.30;99.90
2999;DHT22;1509;51.964;7.628;2023-10-19T15:54:52;17.30;99.90
2999;DHT22;1509;51.964;7.628;2023-10-19T15:57:18;17.30;99.90
2999;DHT22;1509;51.964;7.628;2023-10-19T15:59:45;17.30;99.90
2999;DHT22;1509;51.964;7.628;2023-10-19T16:02:11;17.30;99.90
2999;DHT22;1509;51.964;7.628;2023-10-19T16:04:38;17.20;99.90
2999;DHT22;1509;51.964;7.628;2023-10-19T16:07:04;17.20;99.90
2999;DHT22;1509;51.964;7.628;2023-10-19T16:09:30;17.20;99.90
2999;DHT22;1509;51.964;7.628;2023-10-19T16:11:56;17.10;99.90
2999;DHT22;1509;51.964;7.628;2023-10-19T16:14:22;17.10;99.90
2999;DHT22;1509;51.964;7.628;2023-10-19T16:16:49;17.10;99.90
2999;DHT22;1509;51.964;7.628;2023-10-19T16:19:14;17.00;99.90
2999;DHT22;1509;51.964;7.628;2023-10-19T16:21:40;17.00;99.90
2999;DHT22;1509;51.964;7.628;2023-10-19T16:24:10;17.00;99.90
2999;DHT22;1509;51.964;7.628;2023-10-19T16:26:37;16.90;99.90
2999;DHT22;1509;51.964;7.628;2023-10-19T16:29:03;16.90;99.90